createdAt,value
2023-01-11T00:01:54.679Z,-2.03
2023-01-11T00:04:21.410Z,-2.06
2023-01-11T00:06:47.997Z,-2.08
2023-01-11T00:09:16.157Z,-2.00
2023-01-11T00:11:42.722Z,-2.12
2023-01-11T00:14:09.238Z,-2.22
2023-01-11T00:16:36.027Z,-2.24
2023-01-11T00:19:02.757Z,-2.26
2023-01-11T00:21:29.259Z,-2.37
2023-01-11T00:23:56.104Z,-2.38
2023-01-11T00:26:22.581Z,-2.46
2023-01-11T00:28:49.713Z,-2.53
2023-01-11T00:31:16.616Z,-2.56
2023-01-11T00:33:43.173Z,-2.50
2023-01-11T00:36:09.908Z,-2.44
2023-01-11T00:38:51.912Z,-2.51
2023-01-11T00:41:37.137Z,-2.58
2023-01-11T00:44:22.690Z,-2.58
2023-01-11T00:47:07.950Z,-2.57
2023-01-11T00:49:34.842Z,-2.52
2023-01-11T00:52:01.634Z,-2.49
2023-01-11T00:54:28.120Z,-2.56
2023-01-11T00:56:54.650Z,-2.58
2023-01-11T00:59:21.140Z,-2.61
2023-01-11T01:01:47.646Z,-2.64
2023-01-11T01:04:14.229Z,-2.66
2023-01-11T01:06:40.802Z,-2.73
2023-01-11T01:09:07.502Z,-2.71
2023-01-11T01:11:34.023Z,-2.72
2023-01-11T01:14:18.908Z,-2.72
2023-01-11T01:16:47.367Z,-2.70
2023-01-11T01:19:14.461Z,-2.72
2023-01-11T01:21:40.941Z,-2.71
2023-01-11T01:24:07.542Z,-2.67
2023-01-11T01:26:34.134Z,-2.65
2023-01-11T01:29:00.649Z,-2.67
2023-01-11T01:31:27.213Z,-2.72
2023-01-11T01:33:53.761Z,-2.77
2023-01-11T01:36:20.313Z,-2.78
2023-01-11T01:38:46.849Z,-2.79
2023-01-11T01:41:13.406Z,-2.92
2023-01-11T01:43:59.717Z,-2.92
2023-01-11T01:46:27.640Z,-2.90
2023-01-11T01:48:58.411Z,-2.91
2023-01-11T01:51:27.493Z,-3.00
2023-01-11T01:53:56.608Z,-3.14
2023-01-11T01:56:25.797Z,-3.12
2023-01-11T01:58:55.676Z,-3.04
2023-01-11T02:01:40.555Z,-2.98
2023-01-11T02:04:10.665Z,-3.00
2023-01-11T02:06:37.601Z,-3.03
2023-01-11T02:13:21.667Z,-3.03
2023-01-11T02:16:08.060Z,-3.06
2023-01-11T02:18:35.952Z,-3.10
2023-01-11T02:21:05.556Z,-3.05
2023-01-11T02:23:52.677Z,-3.08
2023-01-11T02:26:19.164Z,-3.05
2023-01-11T02:28:54.353Z,-3.07
2023-01-11T02:31:44.595Z,-3.09
2023-01-11T02:34:14.187Z,-3.11
2023-01-11T02:36:49.635Z,-3.07
2023-01-11T02:39:28.267Z,-3.03
2023-01-11T02:42:17.399Z,-3.10
2023-01-11T02:45:01.568Z,-3.12
2023-01-11T02:47:40.203Z,-3.14
2023-01-11T02:50:13.073Z,-3.19
2023-01-11T02:52:45.063Z,-3.19
2023-01-11T02:55:13.481Z,-3.23
2023-01-11T02:57:42.818Z,-3.27
2023-01-11T03:00:10.480Z,-3.26
2023-01-11T03:02:37.065Z,-3.29
2023-01-11T03:05:10.644Z,-3.29
2023-01-11T03:07:48.774Z,-3.29
2023-01-11T03:10:25.009Z,-3.26
2023-01-11T03:13:09.925Z,-3.26
2023-01-11T03:15:36.441Z,-3.30
2023-01-11T03:18:09.571Z,-3.31
2023-01-11T03:20:41.991Z,-3.33
2023-01-11T03:23:11.601Z,-3.32
2023-01-11T03:25:47.870Z,-3.33
2023-01-11T03:28:37.367Z,-3.33
2023-01-11T03:31:03.913Z,-3.37
2023-01-11T03:33:45.477Z,-3.39
2023-01-11T03:36:19.853Z,-3.35
2023-01-11T03:38:51.158Z,-3.31
2023-01-11T03:41:21.483Z,-3.34
2023-01-11T03:43:50.091Z,-3.33
2023-01-11T03:46:21.217Z,-3.37
2023-01-11T03:48:52.149Z,-3.35
2023-01-11T03:51:20.956Z,-3.36
2023-01-11T03:53:49.853Z,-3.40
2023-01-11T03:56:18.668Z,-3.37
2023-01-11T03:58:45.207Z,-3.36
2023-01-11T04:01:12.552Z,-3.31
2023-01-11T04:03:39.122Z,-3.34
2023-01-11T04:06:05.885Z,-3.32
2023-01-11T04:08:32.441Z,-3.39
2023-01-11T04:10:58.960Z,-3.29
2023-01-11T04:13:25.562Z,-3.34
2023-01-11T04:15:52.980Z,-3.31
2023-01-11T04:18:19.533Z,-3.34
2023-01-11T04:20:46.415Z,-3.35
2023-01-11T04:23:13.048Z,-3.40
2023-01-11T04:25:39.557Z,-3.45
2023-01-11T04:28:06.083Z,-3.47
2023-01-11T04:30:32.670Z,-3.44
2023-01-11T04:32:59.330Z,-3.42
2023-01-11T04:35:26.247Z,-3.39
2023-01-11T04:37:56.044Z,-3.40
2023-01-11T04:40:22.870Z,-3.43
2023-01-11T04:42:49.390Z,-3.53
2023-01-11T04:45:15.899Z,-3.58
2023-01-11T04:47:42.428Z,-3.57
2023-01-11T04:50:09.412Z,-3.58
2023-01-11T04:52:35.967Z,-3.61
2023-01-11T04:55:02.507Z,-3.65
2023-01-11T04:57:28.995Z,-3.63
2023-01-11T04:59:55.546Z,-3.68
2023-01-11T05:02:22.068Z,-3.67
2023-01-11T05:04:48.563Z,-3.65
2023-01-11T05:07:15.110Z,-3.65
2023-01-11T05:09:41.651Z,-3.66
2023-01-11T05:12:08.206Z,-3.69
2023-01-11T05:14:34.812Z,-3.69
2023-01-11T05:17:01.306Z,-3.68
2023-01-11T05:19:27.829Z,-3.67
2023-01-11T05:21:54.374Z,-3.68
2023-01-11T05:24:20.880Z,-3.66
2023-01-11T05:26:50.229Z,-3.64
2023-01-11T05:29:16.824Z,-3.38
2023-01-11T05:31:43.527Z,-3.48
2023-01-11T05:34:12.142Z,-3.68
2023-01-11T05:36:39.279Z,-3.75
2023-01-11T05:39:06.298Z,-3.69
2023-01-11T05:41:33.110Z,-3.67
2023-01-11T05:44:18.126Z,-3.70
2023-01-11T05:46:44.758Z,-3.91
2023-01-11T05:49:12.507Z,-4.01
2023-01-11T05:51:39.394Z,-3.95
2023-01-11T05:54:07.306Z,-3.96
2023-01-11T05:56:34.152Z,-3.97
2023-01-11T05:59:00.670Z,-3.95
2023-01-11T06:01:27.265Z,-4.01
2023-01-11T06:03:53.780Z,-4.01
2023-01-11T06:06:20.768Z,-4.03
2023-01-11T06:08:47.290Z,-3.96
2023-01-11T06:11:14.933Z,-4.00
2023-01-11T06:13:41.594Z,-4.03
2023-01-11T06:16:10.788Z,-4.02
2023-01-11T06:18:38.694Z,-3.99
2023-01-11T06:21:05.994Z,-3.98
2023-01-11T06:23:33.452Z,-3.97
2023-01-11T06:26:07.379Z,-4.05
2023-01-11T06:28:33.927Z,-4.05
2023-01-11T06:31:00.917Z,-4.02
2023-01-11T06:33:28.063Z,-4.10
2023-01-11T06:35:55.059Z,-4.08
2023-01-11T06:38:22.245Z,-4.08
2023-01-11T06:40:53.391Z,-4.04
2023-01-11T06:43:20.113Z,-4.03
2023-01-11T06:45:46.865Z,-3.99
2023-01-11T06:48:13.367Z,-3.93
2023-01-11T06:50:39.951Z,-3.94
2023-01-11T06:53:06.441Z,-3.93
2023-01-11T06:55:33.005Z,-3.90
2023-01-11T06:57:59.616Z,-3.84
2023-01-11T07:00:26.544Z,-3.85
2023-01-11T07:02:53.095Z,-3.79
2023-01-11T07:05:19.977Z,-3.75
2023-01-11T07:07:46.578Z,-3.73
2023-01-11T07:10:14.501Z,-3.72
2023-01-11T07:12:41.172Z,-3.66
2023-01-11T07:15:08.608Z,-3.60
2023-01-11T07:17:35.433Z,-3.53
2023-01-11T07:20:02.280Z,-3.41
2023-01-11T07:22:28.794Z,-3.31
2023-01-11T07:24:55.371Z,-3.16
2023-01-11T07:27:21.905Z,-3.11
2023-01-11T07:29:48.467Z,-3.00
2023-01-11T07:32:14.989Z,-2.48
2023-01-11T07:34:41.550Z,-1.95
2023-01-11T07:37:28.076Z,-1.60
2023-01-11T07:39:55.854Z,-1.47
2023-01-11T07:42:40.621Z,-1.50
2023-01-11T07:45:07.467Z,-1.67
2023-01-11T07:47:33.998Z,-1.83
2023-01-11T07:50:00.565Z,-1.97
2023-01-11T07:52:27.118Z,-2.11
2023-01-11T07:54:53.649Z,-2.21
2023-01-11T07:57:20.201Z,-2.24
2023-01-11T07:59:46.732Z,-2.15
2023-01-11T08:02:13.257Z,-2.13
2023-01-11T08:04:39.824Z,-2.21
2023-01-11T08:07:06.293Z,-2.23
2023-01-11T08:09:32.891Z,-2.26
2023-01-11T08:12:17.959Z,-2.31
2023-01-11T08:14:44.628Z,-2.27
2023-01-11T08:17:12.580Z,-2.08
2023-01-11T08:19:39.279Z,-1.92
2023-01-11T08:22:06.187Z,-1.83
2023-01-11T08:24:32.769Z,-1.81
2023-01-11T08:26:59.294Z,-1.72
2023-01-11T08:29:25.852Z,-1.57
2023-01-11T08:31:52.483Z,-1.51
2023-01-11T08:34:19.013Z,-1.63
2023-01-11T08:36:45.569Z,-1.60
2023-01-11T08:39:12.605Z,-1.45
2023-01-11T08:41:39.283Z,-1.25
2023-01-11T08:44:06.052Z,-0.98
2023-01-11T08:46:34.323Z,-0.96
2023-01-11T08:49:01.427Z,-0.99
2023-01-11T08:51:27.912Z,-0.99
2023-01-11T08:53:54.539Z,-1.07
2023-01-11T08:56:21.109Z,-1.11
2023-01-11T08:58:47.628Z,-1.08
2023-01-11T09:01:14.177Z,-1.06
2023-01-11T09:03:40.740Z,-1.09
2023-01-11T09:06:07.432Z,-0.99
2023-01-11T09:08:33.931Z,-1.03
2023-01-11T09:11:00.759Z,-1.04
2023-01-11T09:13:27.587Z,-1.01
2023-01-11T09:15:57.598Z,-0.89
2023-01-11T09:18:26.939Z,-0.69
2023-01-11T09:20:54.343Z,-0.47
2023-01-11T09:23:20.999Z,-0.35
2023-01-11T09:25:47.511Z,-0.33
2023-01-11T09:28:14.223Z,-0.33
2023-01-11T09:30:40.758Z,-0.33
2023-01-11T09:33:07.293Z,-0.24
2023-01-11T09:35:35.003Z,-0.13
2023-01-11T09:38:02.692Z,0.04
2023-01-11T09:40:37.029Z,0.09
2023-01-11T09:43:07.331Z,0.32
2023-01-11T09:45:35.512Z,0.38
2023-01-11T09:48:15.593Z,0.39
2023-01-11T09:50:45.637Z,0.36
2023-01-11T09:53:31.654Z,0.44
2023-01-11T09:56:01.455Z,0.48
2023-01-11T09:58:50.895Z,0.46
2023-01-11T10:01:27.828Z,0.46
2023-01-11T10:03:58.295Z,0.48
2023-01-11T10:06:33.465Z,0.45
2023-01-11T10:18:33.921Z,0.72
2023-01-11T10:18:40.174Z,0.81
2023-01-11T10:21:05.642Z,0.80
2023-01-11T10:23:54.283Z,0.84
2023-01-11T10:26:28.832Z,0.85
2023-01-11T10:29:24.260Z,0.95
2023-01-11T10:32:02.408Z,0.98
2023-01-11T10:34:56.851Z,1.00
2023-01-11T10:37:42.879Z,1.23
2023-01-11T10:40:38.014Z,1.38
2023-01-11T10:43:10.034Z,1.37
2023-01-11T10:45:43.621Z,1.33
2023-01-11T10:48:20.806Z,1.41
2023-01-11T10:50:57.329Z,1.47
2023-01-11T10:53:28.878Z,1.51
2023-01-11T10:55:55.378Z,1.80
2023-01-11T10:58:31.002Z,1.87
2023-01-11T11:01:24.562Z,2.02
2023-01-11T11:03:51.069Z,2.16
2023-01-11T11:06:17.586Z,2.23
2023-01-11T11:08:44.646Z,2.26
2023-01-11T11:11:37.543Z,2.28
2023-01-11T11:14:12.407Z,2.35
2023-01-11T11:16:51.136Z,2.57
2023-01-11T11:19:21.265Z,2.48
2023-01-11T11:21:48.839Z,2.46
2023-01-11T11:24:20.631Z,2.42
2023-01-11T11:26:52.287Z,2.38
2023-01-11T11:29:23.310Z,2.75
2023-01-11T11:31:50.937Z,2.84
2023-01-11T11:34:18.927Z,3.08
2023-01-11T11:36:52.133Z,3.13
2023-01-11T11:39:20.480Z,3.20
2023-01-11T11:41:48.670Z,3.23
2023-01-11T11:44:17.371Z,3.25
2023-01-11T11:46:56.267Z,3.36
2023-01-11T11:49:22.811Z,3.47
2023-01-11T11:51:50.809Z,3.57
2023-01-11T11:54:43.854Z,3.47
2023-01-11T11:57:20.832Z,3.44
2023-01-11T11:59:48.854Z,3.40
2023-01-11T12:02:22.335Z,3.32
2023-01-11T12:04:49.615Z,3.42
2023-01-11T12:07:18.562Z,3.58
2023-01-11T12:09:47.846Z,3.56
2023-01-11T12:12:19.323Z,3.58
2023-01-11T12:15:05.816Z,3.51
2023-01-11T12:17:32.317Z,3.59
2023-01-11T12:19:58.926Z,3.64
2023-01-11T12:22:27.132Z,3.70
2023-01-11T12:25:02.853Z,3.68
2023-01-11T12:27:47.354Z,3.69
2023-01-11T12:30:24.718Z,3.63
2023-01-11T12:33:10.035Z,3.59
2023-01-11T12:35:36.559Z,3.48
2023-01-11T12:38:03.008Z,3.44
2023-01-11T12:40:47.985Z,3.43
2023-01-11T12:43:35.283Z,3.41
2023-01-11T12:46:01.832Z,3.43
2023-01-11T12:48:38.400Z,3.45
2023-01-11T12:51:13.895Z,3.48
2023-01-11T12:53:56.885Z,3.62
2023-01-11T12:56:31.310Z,3.67
2023-01-11T12:59:09.860Z,3.92
2023-01-11T13:01:39.427Z,3.92
2023-01-11T13:04:14.744Z,4.02
2023-01-11T13:06:45.296Z,3.97
2023-01-11T13:09:20.869Z,3.87
2023-01-11T13:11:48.846Z,3.80
2023-01-11T13:14:29.595Z,3.75
2023-01-11T13:17:11.361Z,3.80
2023-01-11T13:20:01.265Z,3.80
2023-01-11T13:22:33.629Z,3.86
2023-01-11T13:25:02.002Z,3.88
2023-01-11T13:27:31.801Z,3.85
2023-01-11T13:30:00.551Z,3.88
2023-01-11T13:32:32.936Z,3.93
2023-01-11T13:35:20.186Z,3.92
2023-01-11T13:38:05.392Z,3.85
2023-01-11T13:40:35.678Z,3.80
2023-01-11T13:43:08.780Z,3.73
2023-01-11T13:45:37.064Z,3.73
2023-01-11T13:48:18.259Z,3.75
2023-01-11T13:50:48.549Z,3.80
2023-01-11T13:53:33.942Z,3.80
2023-01-11T13:56:06.396Z,3.79
2023-01-11T13:58:40.351Z,3.79
2023-01-11T14:01:08.300Z,3.79
2023-01-11T14:03:47.174Z,3.74
2023-01-11T14:06:25.802Z,3.68
2023-01-11T14:09:00.571Z,3.63
2023-01-11T14:11:36.356Z,3.64
2023-01-11T14:14:15.521Z,3.63
2023-01-11T14:20:33.368Z,3.66
2023-01-11T14:23:13.858Z,3.59
2023-01-11T14:25:43.399Z,3.59
2023-01-11T14:28:15.828Z,3.56
2023-01-11T14:30:42.402Z,3.44
2023-01-11T14:33:17.800Z,3.60
2023-01-11T14:36:00.406Z,3.56
2023-01-11T14:38:35.831Z,3.54
2023-01-11T14:41:11.271Z,3.47
2023-01-11T14:43:40.779Z,3.39
2023-01-11T14:46:25.928Z,3.28
2023-01-11T14:48:52.453Z,3.24
2023-01-11T14:51:32.684Z,3.19
2023-01-11T14:54:08.604Z,3.17
2023-01-11T14:56:36.839Z,3.14
2023-01-11T14:59:07.455Z,3.10
2023-01-11T15:01:52.751Z,3.08
2023-01-11T15:04:22.834Z,3.02
2023-01-11T15:06:54.436Z,2.91
2023-01-11T15:09:39.700Z,2.88
2023-01-11T15:12:11.664Z,2.77
2023-01-11T15:14:38.240Z,2.69
2023-01-11T15:17:23.400Z,2.64
2023-01-11T15:19:51.559Z,2.52
2023-01-11T15:22:31.039Z,2.47
2023-01-11T15:24:59.183Z,2.41
2023-01-11T15:27:27.555Z,2.23
2023-01-11T15:29:55.838Z,2.17
2023-01-11T15:32:27.613Z,2.12
2023-01-11T15:34:54.309Z,2.05
2023-01-11T15:37:20.784Z,2.04
2023-01-11T15:39:59.638Z,1.95
2023-01-11T15:42:55.511Z,1.93
2023-01-11T15:45:24.851Z,1.83
2023-01-11T15:47:51.348Z,1.82
2023-01-11T15:50:17.866Z,1.81
2023-01-11T15:53:03.019Z,1.76
2023-01-11T15:56:07.900Z,1.72
2023-01-11T15:59:05.073Z,1.72
2023-01-11T16:01:43.553Z,1.71
2023-01-11T16:04:23.836Z,1.56
2023-01-11T16:06:56.571Z,1.51
2023-01-11T16:09:27.577Z,1.41
2023-01-11T16:12:12.868Z,1.40
2023-01-11T16:14:57.968Z,1.35
2023-01-11T16:17:25.042Z,1.30
2023-01-11T16:19:56.708Z,1.26
2023-01-11T16:22:25.868Z,1.11
2023-01-11T16:24:57.608Z,1.03
2023-01-11T16:27:26.384Z,1.02
2023-01-11T16:29:53.052Z,1.00
2023-01-11T16:32:19.581Z,0.95
2023-01-11T16:34:50.240Z,0.93
2023-01-11T16:37:22.671Z,0.93
2023-01-11T16:39:51.728Z,0.92
2023-01-11T16:42:18.229Z,0.93
2023-01-11T16:45:01.597Z,0.92
2023-01-11T16:47:28.192Z,0.87
2023-01-11T16:50:13.311Z,0.87
2023-01-11T16:52:45.754Z,0.87
2023-01-11T16:55:20.159Z,0.84
2023-01-11T16:57:49.450Z,0.75
2023-01-11T17:00:22.179Z,0.74
2023-01-11T17:02:50.310Z,0.70
2023-01-11T17:05:23.849Z,0.73
2023-01-11T17:07:50.469Z,0.75
2023-01-11T17:10:22.460Z,0.71
2023-01-11T17:13:01.496Z,0.67
2023-01-11T17:15:34.171Z,0.59
2023-01-11T17:18:03.999Z,0.58
2023-01-11T17:20:31.412Z,0.64
2023-01-11T17:22:58.380Z,0.71
2023-01-11T17:25:29.586Z,0.63
2023-01-11T17:28:13.218Z,0.64
2023-01-11T17:30:39.782Z,0.58
2023-01-11T17:33:06.332Z,0.56
2023-01-11T17:35:39.167Z,0.53
2023-01-11T17:38:06.968Z,0.60
2023-01-11T17:40:38.218Z,0.59
2023-01-11T17:43:31.841Z,0.58
2023-01-11T17:45:58.866Z,0.61
2023-01-11T17:48:29.427Z,0.78
2023-01-11T17:50:57.939Z,0.73
2023-01-11T17:53:26.988Z,0.70
2023-01-11T17:55:55.463Z,0.71
2023-01-11T17:58:24.038Z,0.74
2023-01-11T18:01:09.179Z,0.79
2023-01-11T18:03:46.442Z,0.89
2023-01-11T18:06:15.952Z,0.98
2023-01-11T18:08:47.023Z,0.91
2023-01-11T18:11:21.398Z,0.98
2023-01-11T18:13:50.829Z,1.06
2023-01-11T18:16:19.421Z,1.04
2023-01-11T18:18:47.782Z,1.09
2023-01-11T18:21:26.554Z,1.04
2023-01-11T18:24:11.379Z,1.23
2023-01-11T18:26:39.378Z,1.21
2023-01-11T18:29:05.957Z,1.27
2023-01-11T18:31:32.828Z,1.33
2023-01-11T18:33:59.425Z,1.30
2023-01-11T18:36:27.616Z,1.27
2023-01-11T18:38:54.140Z,1.25
2023-01-11T18:41:39.108Z,1.25
2023-01-11T18:44:06.048Z,1.28
2023-01-11T18:46:32.698Z,1.29
2023-01-11T18:48:59.204Z,1.37
2023-01-11T18:51:33.826Z,1.32
2023-01-11T18:54:00.351Z,1.32
2023-01-11T18:56:26.890Z,1.38
2023-01-11T18:58:53.416Z,1.46
2023-01-11T19:01:20.022Z,1.46
2023-01-11T19:03:46.556Z,1.43
2023-01-11T19:06:13.301Z,1.39
2023-01-11T19:08:40.001Z,1.35
2023-01-11T19:11:06.571Z,1.34
2023-01-11T19:13:33.095Z,1.34
2023-01-11T19:16:02.486Z,1.28
2023-01-11T19:18:29.378Z,1.34
2023-01-11T19:21:00.686Z,1.47
2023-01-11T19:23:27.352Z,1.56
2023-01-11T19:25:57.999Z,1.50
2023-01-11T19:28:24.473Z,1.45
2023-01-11T19:30:51.089Z,1.50
2023-01-11T19:33:17.638Z,1.44
2023-01-11T19:35:44.493Z,1.40
2023-01-11T19:38:11.104Z,1.40
2023-01-11T19:40:37.934Z,1.40
2023-01-11T19:43:04.511Z,1.67
2023-01-11T19:45:31.085Z,1.60
2023-01-11T19:47:58.693Z,1.73
2023-01-11T19:50:25.200Z,1.69
2023-01-11T19:52:51.796Z,1.67
2023-01-11T19:55:18.359Z,1.60
2023-01-11T19:57:45.071Z,1.57
2023-01-11T20:00:14.260Z,1.58
2023-01-11T20:02:41.102Z,1.55
2023-01-11T20:05:07.769Z,1.56
2023-01-11T20:07:34.552Z,1.65
2023-01-11T20:10:01.136Z,1.70
2023-01-11T20:12:27.672Z,1.68
2023-01-11T20:14:57.756Z,1.67
2023-01-11T20:17:24.354Z,1.60
2023-01-11T20:19:54.633Z,1.58
2023-01-11T20:22:22.172Z,1.66
2023-01-11T20:24:48.767Z,1.60
2023-01-11T20:27:15.368Z,1.72
2023-01-11T20:29:43.886Z,1.81
2023-01-11T20:32:34.990Z,1.95
2023-01-11T20:34:57.278Z,1.91
2023-01-11T20:37:23.852Z,1.81
2023-01-11T20:39:50.502Z,1.75
2023-01-11T20:42:17.001Z,1.75
2023-01-11T20:44:43.551Z,1.77
2023-01-11T20:47:10.124Z,1.77
2023-01-11T20:49:36.766Z,1.77
2023-01-11T20:52:03.368Z,1.71
2023-01-11T20:54:29.916Z,1.70
2023-01-11T20:57:02.078Z,1.66
2023-01-11T20:59:28.771Z,1.64
2023-01-11T21:01:55.360Z,1.70
2023-01-11T21:04:21.929Z,1.80
2023-01-11T21:06:48.520Z,1.80
2023-01-11T21:09:16.404Z,1.76
2023-01-11T21:11:44.200Z,1.77
2023-01-11T21:14:13.949Z,1.84
2023-01-11T21:16:41.566Z,1.79
2023-01-11T21:19:10.588Z,1.73
2023-01-11T21:21:37.165Z,1.68
2023-01-11T21:24:04.213Z,1.78
2023-01-11T21:26:31.748Z,1.89
2023-01-11T21:28:59.776Z,1.79
2023-01-11T21:31:27.581Z,1.90
2023-01-11T21:33:54.535Z,1.90
2023-01-11T21:36:22.621Z,1.86
2023-01-11T21:38:49.224Z,1.84
2023-01-11T21:41:16.973Z,1.83
2023-01-11T21:43:44.911Z,1.98
2023-01-11T21:46:12.589Z,1.95
2023-01-11T21:48:39.183Z,1.94
2023-01-11T21:51:11.464Z,1.97
2023-01-11T21:53:38.332Z,2.02
2023-01-11T21:56:06.959Z,2.02
2023-01-11T21:58:34.174Z,2.10
2023-01-11T22:01:08.614Z,2.17
2023-01-11T22:03:35.461Z,2.07
2023-01-11T22:06:02.684Z,1.99
2023-01-11T22:08:29.741Z,1.93
2023-01-11T22:10:57.285Z,1.89
2023-01-11T22:13:23.838Z,1.82
2023-01-11T22:15:50.395Z,1.80
2023-01-11T22:18:17.049Z,1.79
2023-01-11T22:20:43.623Z,1.75
2023-01-11T22:23:10.273Z,1.75
2023-01-11T22:25:36.819Z,1.74
2023-01-11T22:28:04.051Z,1.98
2023-01-11T22:30:30.570Z,1.87
2023-01-11T22:32:59.151Z,1.73
2023-01-11T22:35:25.809Z,1.64
2023-01-11T22:37:52.378Z,1.64
2023-01-11T22:40:18.910Z,1.68
2023-01-11T22:42:45.449Z,1.88
2023-01-11T22:45:11.981Z,1.87
2023-01-11T22:47:38.569Z,1.72
2023-01-11T22:50:05.453Z,1.67
2023-01-11T22:52:33.019Z,1.64
2023-01-11T22:54:59.556Z,1.65
2023-01-11T22:57:26.060Z,1.62
2023-01-11T22:59:52.584Z,1.60
2023-01-11T23:02:19.108Z,1.58
2023-01-11T23:04:45.697Z,1.60
2023-01-11T23:07:12.193Z,1.60
2023-01-11T23:09:38.769Z,1.50
2023-01-11T23:12:23.996Z,1.45
2023-01-11T23:14:50.509Z,1.45
2023-01-11T23:17:19.006Z,1.61
2023-01-11T23:19:45.673Z,1.70
2023-01-11T23:22:15.234Z,1.73
2023-01-11T23:24:42.636Z,1.57
2023-01-11T23:27:09.211Z,1.46
2023-01-11T23:29:35.985Z,1.40
2023-01-11T23:32:02.732Z,1.41
2023-01-11T23:34:29.354Z,1.40
2023-01-11T23:36:55.902Z,1.39
2023-01-11T23:39:23.845Z,1.41
2023-01-11T23:42:09.009Z,1.43
2023-01-11T23:44:35.973Z,1.43
2023-01-11T23:47:20.859Z,1.44
2023-01-11T23:50:03.051Z,1.60
2023-01-11T23:52:30.672Z,1.59
2023-01-11T23:54:57.527Z,1.53
2023-01-11T23:57:24.909Z,1.48
2023-01-11T23:59:51.409Z,1.43
